04 Mart 2015, Çarşamba 16:06:21

İŞTE THY UÇAĞININ İZLEDİĞİ ROTA

Türk Hava Yolları'nın bu sabah Nepal'de pistten çıkan uçağının İstanbul'dan itibaren izlediği rota ortaya çıktı.
  • Thy'nin prestijini öyle bir batırdınız ki, dünyaya cümle aleme öyle bir rezil ettiniz ki şimdi rahat rahat huzurla yiyin o paraları ki hiç gözümüz yok. Siz de lufthansa, british, emirates, qantas pilotları gibi uçsanız helal olsun daha çok para versinler. Ama böyle bir teker dışarda inişler, pisten 500 mt önce tarlaya inişler hiç olmuyo ama dimi. Ne yüz varmış sizde be hala konuşuyorsunuz.
  • Pisti ortalayamayıp sol iniş takımını toprağa basan astronotun alkol muayenesi yapıldı mı peki? Paraları çuvalla cukkalarken iyi. Şasma yok. Ama iş vatandaşın uçağını indirmeye gelince yan çiz, yandan in. Bu astronotlar gerçekten sopalık.
  • Ucagi ucuza kapatmak icin sahibinden.com da takipte kalmak lazim. Bayan doktor pilottan, citir hasarli, hafif boyali, yururunde ucusunda problem olmayan A330.
  • Shgm dil sınav sonuçlarını açıklarmış yupppiii Ömür boyu yırttım
  • Metars: VNKT 040450Z VRB02KT 5000 BR FEW015 16/09 Q1016 NOSIG VNKT 040350Z 00000KT 3500 BR FEW015 13/09 Q1016 BECMG FM0420Z 4000 BR VNKT 040250Z 00000KT 3000 BR FEW015 09/09 Q1016 NOSIG VNKT 032350Z 00000KT 0500 FG VV/// 08/07 Q1013 NOSIG VNKT 032250Z 00000KT 6000 FEW020 08/08 Q1013 NOSIG VNKT 032150Z 00000KT 7000 FEW020 08/08 Q1013 NOSIG VNKT 032050Z 00000KT 7000 FEW020 09/09 Q1013 NOSIG Related NOTAM: A0030/15 NOTAMR A0029/15 Q)VNSM/QMRLC/IV/NBO/A/000/999/2741N08521E005 A)VNKT B)1503040530 C)1503041115 E)RWY CLSD FOR ALL INTERNATIONAL FLT-S DUE DISABLE ACFT. RWY 02 THRESHOLD DISPLACED BY 1550M MARKED BY RED AND WHITE FLAG. REMAINING RWY LENGTH 1550M FROM DISPLACED THRESHOLD RWY 02. RWY OPEN FOR DOMESTIC FLT-S ONLY. ARR FM RWY 20 AND DEP FM 02.
  • Geçmiş olsun kabin ve Kokpit ekibine Tebrikler çünkü kimse yara almadan tahliye yaptirilmis.
  • sanirim pilot hatasi gibi gozukuyor boyle bir durumda pilota bi yaptirim varmi sonucta sirketi milyonlarca dolar zarara sokuyo boyle bi olayin prosedurur nedir bilen yazarsa sevinirim
  • Arkadaşlar Türkçe bilmeyenler yazmasın lütfen. İlkokulu da mı bitiremediniz be! Daha konuştuğun dili öğrenememişsin uçağın pilotlarının ismini soruyorsun. Ne yapacaksın? Boncukçu arkadaş sen pilotların boncuklarını toplamaya devam et çünkü sen ve senin gibiler ancak başkalarının peşinden koşup onları izleyebilirler. Ne bileyim boncukları görür başka şeylere takar. Divert etmek ne demek, pas geçmek ne demek hangi şartlarda yapılır, hangi şartlarda yapılmaz en ufak bir fikriniz olmamasına rağmen nasıl da fütursuzca saçmayalabiliyorsunuz :) işte buna "cahil cesareti" deniyor. Sizdeki özgüven kafası çalışan adamlarda olmuyor maalesef. Bu da Doğanın dengesi olsa gerek..
  • o pilotlari 100 metre görüş mesafesinde oraya inmeye zorlayan psikolojik baskıyı yaratan acimasiz zihniyettir tek sorumlu. hadi bakalım biraz daha baski. biraz daha yakit tasarrufu. biraz daha acımasızlık. bakalim ne zaman Başaracaksiniz.
  • Oncelikle gecmis olsun bu tur kazalar elbette her pilotun basina gelebilir. Maalesef THY de ise bu tur kazalar sikca oluyo,bence bir hat acmadan once rotayi ve limani iyi arastirmak lazim,ve bence hata burda yapilmis yani korlemeye hat acilmis. THY yonetimi zaten ne yapdigin farkinda degil daha cok hat daha cok ucus daha cok para felsefesinde.Birde THY yonetimi lutfen pilot aramak icin once kendi ulkenize bakin,orda issiz pilot kalmassa o zaman yabanci ulkelere gidin.Once kendi milletim LUTFEN AMMA.Tekrar herkese gecmis olsun,AFRIKADAN SELAMLAR SAYGILAR.

Türk Hava Yolları'nın bu sabah Nepal'de pistten çıkan uçağının İstanbul'dan itibaren izlediği rota ortaya çıktı.

Radar görüntülerine yansıyan anlarda İstanbul'dan havalandıktan sonra Katmandu'ya giden THY uçağının izlediği rota görülürken, uçağın aynı noktada 6 kez tur attığı öğrenildi.

TC-JOC kuyruk tescilli THY uçağının ilk denemesinde de pisti pas geçtiği ve ikinci denemesinde inebildiği ortaya çıkmıştı. İkinci denemede inen uçak toprak zemine saplanmıştı.

İşte THY uçağının İstanbul'da Katmandu'ya kadar izlediği rota:



İŞTE THY UÇAĞININ İZLEDİĞİ ROTA

Facebook Yorum

Yorumlar Tüm Yorumlar (87)

14:10'a ~ 4 yıl önce
Thy'nin prestijini öyle bir batırdınız ki, dünyaya cümle aleme öyle bir rezil ettiniz ki şimdi rahat rahat huzurla yiyin o paraları ki hiç gözümüz yok. Siz de lufthansa, british, emirates, qantas pilotları gibi uçsanız helal olsun daha çok para versinler. Ama böyle bir teker dışarda inişler, pisten 500 mt önce tarlaya inişler hiç olmuyo ama dimi. Ne yüz varmış sizde be hala konuşuyorsunuz.

Yanıtla

Kalan karakter 1000
Alkol ~ 4 yıl önce
Pisti ortalayamayıp sol iniş takımını toprağa basan astronotun alkol muayenesi yapıldı mı peki? Paraları çuvalla cukkalarken iyi. Şasma yok. Ama iş vatandaşın uçağını indirmeye gelince yan çiz, yandan in. Bu astronotlar gerçekten sopalık.

Yanıtla

Kalan karakter 1000
Alkol'e ~ 4 yıl önce
Sen hangi ürünün eserisin güzelim? Bu işler öyle masa başından sallamakla olmuyor çalış uğraş sende kazan sen ötsende yırtsanda bitaraflarını, o insanlar o paraları alcak çok daha fazlasını alcak... Hadi bakalım asıl sen yandan yandan öğren de öyle yorum yap ..
iPhone Uygulaması ~ 4 yıl önce
Ucagi ucuza kapatmak icin sahibinden.com da takipte kalmak lazim. Bayan doktor pilottan, citir hasarli, hafif boyali, yururunde ucusunda problem olmayan A330.

Yanıtla

Kalan karakter 1000
iPhone Uygulaması ~ 4 yıl önce
Shgm dil sınav sonuçlarını açıklarmış yupppiii Ömür boyu yırttım

Yanıtla

Kalan karakter 1000
??? iyimisin ~ 4 yıl önce
iyimisin KAPTAN?? ccok uçma sen..
A332 ~ 4 yıl önce
Metars: VNKT 040450Z VRB02KT 5000 BR FEW015 16/09 Q1016 NOSIG VNKT 040350Z 00000KT 3500 BR FEW015 13/09 Q1016 BECMG FM0420Z 4000 BR VNKT 040250Z 00000KT 3000 BR FEW015 09/09 Q1016 NOSIG VNKT 032350Z 00000KT 0500 FG VV/// 08/07 Q1013 NOSIG VNKT 032250Z 00000KT 6000 FEW020 08/08 Q1013 NOSIG VNKT 032150Z 00000KT 7000 FEW020 08/08 Q1013 NOSIG VNKT 032050Z 00000KT 7000 FEW020 09/09 Q1013 NOSIG Related NOTAM: A0030/15 NOTAMR A0029/15 Q)VNSM/QMRLC/IV/NBO/A/000/999/2741N08521E005 A)VNKT B)1503040530 C)1503041115 E)RWY CLSD FOR ALL INTERNATIONAL FLT-S DUE DISABLE ACFT. RWY 02 THRESHOLD DISPLACED BY 1550M MARKED BY RED AND WHITE FLAG. REMAINING RWY LENGTH 1550M FROM DISPLACED THRESHOLD RWY 02. RWY OPEN FOR DOMESTIC FLT-S ONLY. ARR FM RWY 20 AND DEP FM 02.

Yanıtla

Kalan karakter 1000
Android Uygulaması ~ 4 yıl önce
Geçmiş olsun kabin ve Kokpit ekibine Tebrikler çünkü kimse yara almadan tahliye yaptirilmis.

Yanıtla

Kalan karakter 1000
737 ~ 4 yıl önce
sanirim pilot hatasi gibi gozukuyor boyle bir durumda pilota bi yaptirim varmi sonucta sirketi milyonlarca dolar zarara sokuyo boyle bi olayin prosedurur nedir bilen yazarsa sevinirim

Yanıtla

Kalan karakter 1000
Yaptırım yok ~ 4 yıl önce
Ama o arkadaşımız bir daha iflah olmaz. Her bakıştan alınır, o olaya geri döner. Kendi kendini yer (self demolishing). Uçuştan kendi ayrılmak zorunda kalır, emekli olur.
uçak sürmek :)) ~ 4 yıl önce
Arkadaşlar Türkçe bilmeyenler yazmasın lütfen. İlkokulu da mı bitiremediniz be! Daha konuştuğun dili öğrenememişsin uçağın pilotlarının ismini soruyorsun. Ne yapacaksın? Boncukçu arkadaş sen pilotların boncuklarını toplamaya devam et çünkü sen ve senin gibiler ancak başkalarının peşinden koşup onları izleyebilirler. Ne bileyim boncukları görür başka şeylere takar. Divert etmek ne demek, pas geçmek ne demek hangi şartlarda yapılır, hangi şartlarda yapılmaz en ufak bir fikriniz olmamasına rağmen nasıl da fütursuzca saçmayalabiliyorsunuz :) işte buna "cahil cesareti" deniyor. Sizdeki özgüven kafası çalışan adamlarda olmuyor maalesef. Bu da Doğanın dengesi olsa gerek..

Yanıtla

Kalan karakter 1000
pilotlar suçsuz ~ 4 yıl önce
o pilotlari 100 metre görüş mesafesinde oraya inmeye zorlayan psikolojik baskıyı yaratan acimasiz zihniyettir tek sorumlu. hadi bakalım biraz daha baski. biraz daha yakit tasarrufu. biraz daha acımasızlık. bakalim ne zaman Başaracaksiniz.

Yanıtla

Kalan karakter 1000
LH ~ 4 yıl önce
Pilot baski ile is yapmaz yapiyorsa onun hatasidir
Bush-Pilot ~ 4 yıl önce
Oncelikle gecmis olsun bu tur kazalar elbette her pilotun basina gelebilir. Maalesef THY de ise bu tur kazalar sikca oluyo,bence bir hat acmadan once rotayi ve limani iyi arastirmak lazim,ve bence hata burda yapilmis yani korlemeye hat acilmis. THY yonetimi zaten ne yapdigin farkinda degil daha cok hat daha cok ucus daha cok para felsefesinde.Birde THY yonetimi lutfen pilot aramak icin once kendi ulkenize bakin,orda issiz pilot kalmassa o zaman yabanci ulkelere gidin.Once kendi milletim LUTFEN AMMA.Tekrar herkese gecmis olsun,AFRIKADAN SELAMLAR SAYGILAR.

Yanıtla

Kalan karakter 1000

Yorum Gönder

Kalan karakter 1000